sensor_id;sensor_type;location;lat;lon;timestamp;P1;durP1;ratioP1;P2;durP2;ratioP2
62543;SDS011;48597;49.030;1.822;2023-06-05T00:00:28;1.95;;;1.02;;
62543;SDS011;48597;49.030;1.822;2023-06-05T00:02:53;1.42;;;1.08;;
62543;SDS011;48597;49.030;1.822;2023-06-05T00:05:19;1.10;;;1.00;;
62543;SDS011;48597;49.030;1.822;2023-06-05T00:07:44;1.75;;;1.10;;
62543;SDS011;48597;49.030;1.822;2023-06-05T00:10:10;2.03;;;1.23;;
62543;SDS011;48597;49.030;1.822;2023-06-05T00:12:36;1.70;;;1.30;;
62543;SDS011;48597;49.030;1.822;2023-06-05T00:15:02;1.63;;;1.08;;
62543;SDS011;48597;49.030;1.822;2023-06-05T00:17:28;1.67;;;1.40;;
62543;SDS011;48597;49.030;1.822;2023-06-05T00:19:55;1.27;;;1.17;;
62543;SDS011;48597;49.030;1.822;2023-06-05T00:22:23;1.48;;;1.00;;
62543;SDS011;48597;49.030;1.822;2023-06-05T00:24:49;1.98;;;1.20;;
62543;SDS011;48597;49.030;1.822;2023-06-05T00:27:15;1.23;;;1.00;;
62543;SDS011;48597;49.030;1.822;2023-06-05T00:29:40;1.80;;;1.30;;
62543;SDS011;48597;49.030;1.822;2023-06-05T00:32:06;1.45;;;1.20;;
62543;SDS011;48597;49.030;1.822;2023-06-05T00:34:31;1.55;;;1.08;;
62543;SDS011;48597;49.030;1.822;2023-06-05T00:36:57;1.80;;;1.17;;
62543;SDS011;48597;49.030;1.822;2023-06-05T00:39:23;2.65;;;1.15;;
62543;SDS011;48597;49.030;1.822;2023-06-05T00:41:48;1.70;;;1.10;;
62543;SDS011;48597;49.030;1.822;2023-06-05T00:44:13;1.10;;;1.00;;
62543;SDS011;48597;49.030;1.822;2023-06-05T00:46:39;1.83;;;1.00;;
62543;SDS011;48597;49.030;1.822;2023-06-05T00:49:05;2.20;;;1.05;;
62543;SDS011;48597;49.030;1.822;2023-06-05T00:51:32;1.48;;;1.10;;
62543;SDS011;48597;49.030;1.822;2023-06-05T00:53:57;0.98;;;0.98;;
62543;SDS011;48597;49.030;1.822;2023-06-05T00:56:23;2.42;;;1.00;;
62543;SDS011;48597;49.030;1.822;2023-06-05T00:58:49;1.50;;;1.10;;
62543;SDS011;48597;49.030;1.822;2023-06-05T01:01:15;1.83;;;1.20;;
62543;SDS011;48597;49.030;1.822;2023-06-05T01:03:42;1.33;;;1.10;;
62543;SDS011;48597;49.030;1.822;2023-06-05T01:06:09;1.60;;;1.15;;
62543;SDS011;48597;49.030;1.822;2023-06-05T01:08:36;2.78;;;1.20;;
62543;SDS011;48597;49.030;1.822;2023-06-05T01:11:20;1.90;;;1.00;;
62543;SDS011;48597;49.030;1.822;2023-06-05T01:13:58;1.90;;;1.20;;
62543;SDS011;48597;49.030;1.822;2023-06-05T01:16:26;1.38;;;1.13;;
62543;SDS011;48597;49.030;1.822;2023-06-05T01:18:55;2.25;;;1.10;;
62543;SDS011;48597;49.030;1.822;2023-06-05T01:21:27;1.40;;;1.13;;
62543;SDS011;48597;49.030;1.822;2023-06-05T01:23:52;1.15;;;0.90;;
62543;SDS011;48597;49.030;1.822;2023-06-05T01:26:18;1.42;;;1.00;;
62543;SDS011;48597;49.030;1.822;2023-06-05T01:28:51;1.38;;;1.10;;
62543;SDS011;48597;49.030;1.822;2023-06-05T01:31:18;2.03;;;1.38;;
62543;SDS011;48597;49.030;1.822;2023-06-05T01:33:52;1.67;;;1.00;;
62543;SDS011;48597;49.030;1.822;2023-06-05T01:36:22;2.40;;;1.38;;
62543;SDS011;48597;49.030;1.822;2023-06-05T01:38:49;1.88;;;1.08;;
62543;SDS011;48597;49.030;1.822;2023-06-05T01:41:18;1.85;;;1.20;;
62543;SDS011;48597;49.030;1.822;2023-06-05T01:43:45;1.48;;;1.00;;
62543;SDS011;48597;49.030;1.822;2023-06-05T01:46:13;1.25;;;0.98;;
62543;SDS011;48597;49.030;1.822;2023-06-05T01:48:40;1.95;;;1.10;;
62543;SDS011;48597;49.030;1.822;2023-06-05T01:51:07;1.95;;;1.20;;
62543;SDS011;48597;49.030;1.822;2023-06-05T01:53:33;1.48;;;0.98;;
62543;SDS011;48597;49.030;1.822;2023-06-05T01:55:58;1.52;;;1.10;;
62543;SDS011;48597;49.030;1.822;2023-06-05T01:58:25;1.60;;;1.00;;
62543;SDS011;48597;49.030;1.822;2023-06-05T02:00:51;1.25;;;1.02;;
62543;SDS011;48597;49.030;1.822;2023-06-05T02:03:22;1.10;;;1.00;;
62543;SDS011;48597;49.030;1.822;2023-06-05T02:05:48;1.20;;;1.02;;
62543;SDS011;48597;49.030;1.822;2023-06-05T02:08:13;1.67;;;1.08;;
62543;SDS011;48597;49.030;1.822;2023-06-05T02:10:47;2.00;;;1.10;;
62543;SDS011;48597;49.030;1.822;2023-06-05T02:13:13;1.40;;;1.00;;
62543;SDS011;48597;49.030;1.822;2023-06-05T02:15:40;1.33;;;1.10;;
62543;SDS011;48597;49.030;1.822;2023-06-05T02:18:06;1.80;;;1.10;;
62543;SDS011;48597;49.030;1.822;2023-06-05T02:20:32;1.80;;;1.20;;
62543;SDS011;48597;49.030;1.822;2023-06-05T02:22:59;2.35;;;1.17;;
62543;SDS011;48597;49.030;1.822;2023-06-05T02:25:25;1.25;;;1.05;;
62543;SDS011;48597;49.030;1.822;2023-06-05T02:27:54;1.85;;;1.10;;
62543;SDS011;48597;49.030;1.822;2023-06-05T02:30:20;1.48;;;1.17;;
62543;SDS011;48597;49.030;1.822;2023-06-05T02:32:46;2.00;;;1.10;;
62543;SDS011;48597;49.030;1.822;2023-06-05T02:35:12;1.48;;;1.10;;
62543;SDS011;48597;49.030;1.822;2023-06-05T02:37:39;1.80;;;1.10;;
62543;SDS011;48597;49.030;1.822;2023-06-05T02:40:11;1.45;;;1.20;;
62543;SDS011;48597;49.030;1.822;2023-06-05T02:42:38;1.65;;;1.10;;
62543;SDS011;48597;49.030;1.822;2023-06-05T02:45:04;1.33;;;1.10;;
62543;SDS011;48597;49.030;1.822;2023-06-05T02:47:30;1.25;;;1.05;;
62543;SDS011;48597;49.030;1.822;2023-06-05T02:49:56;1.42;;;1.08;;
62543;SDS011;48597;49.030;1.822;2023-06-05T02:52:22;2.03;;;1.10;;
62543;SDS011;48597;49.030;1.822;2023-06-05T02:54:49;2.42;;;1.20;;
62543;SDS011;48597;49.030;1.822;2023-06-05T02:57:15;1.20;;;1.10;;
62543;SDS011;48597;49.030;1.822;2023-06-05T02:59:42;1.13;;;1.00;;
62543;SDS011;48597;49.030;1.822;2023-06-05T03:02:08;1.77;;;1.02;;
62543;SDS011;48597;49.030;1.822;2023-06-05T03:04:33;1.80;;;1.08;;
62543;SDS011;48597;49.030;1.822;2023-06-05T03:06:59;1.27;;;1.17;;
62543;SDS011;48597;49.030;1.822;2023-06-05T03:09:28;2.35;;;1.02;;
62543;SDS011;48597;49.030;1.822;2023-06-05T03:11:57;1.70;;;1.05;;
62543;SDS011;48597;49.030;1.822;2023-06-05T03:14:23;2.78;;;1.20;;
62543;SDS011;48597;49.030;1.822;2023-06-05T03:16:49;1.85;;;1.13;;
62543;SDS011;48597;49.030;1.822;2023-06-05T03:19:15;1.52;;;0.95;;
62543;SDS011;48597;49.030;1.822;2023-06-05T03:21:41;4.13;;;1.10;;
62543;SDS011;48597;49.030;1.822;2023-06-05T03:24:08;1.83;;;1.25;;
62543;SDS011;48597;49.030;1.822;2023-06-05T03:29:05;2.20;;;1.00;;
62543;SDS011;48597;49.030;1.822;2023-06-05T03:31:31;1.25;;;1.10;;
62543;SDS011;48597;49.030;1.822;2023-06-05T03:33:57;1.50;;;1.10;;
62543;SDS011;48597;49.030;1.822;2023-06-05T03:36:24;2.30;;;1.20;;
62543;SDS011;48597;49.030;1.822;2023-06-05T03:38:50;2.78;;;1.17;;
62543;SDS011;48597;49.030;1.822;2023-06-05T03:41:16;2.40;;;1.10;;
62543;SDS011;48597;49.030;1.822;2023-06-05T03:43:41;3.50;;;1.40;;
62543;SDS011;48597;49.030;1.822;2023-06-05T03:46:07;1.42;;;1.15;;
62543;SDS011;48597;49.030;1.822;2023-06-05T03:48:33;3.50;;;1.35;;
62543;SDS011;48597;49.030;1.822;2023-06-05T03:50:58;1.38;;;1.10;;
62543;SDS011;48597;49.030;1.822;2023-06-05T03:53:25;1.67;;;1.30;;
62543;SDS011;48597;49.030;1.822;2023-06-05T03:55:53;2.03;;;1.33;;
62543;SDS011;48597;49.030;1.822;2023-06-05T03:58:19;2.30;;;1.30;;
62543;SDS011;48597;49.030;1.822;2023-06-05T04:00:46;2.75;;;1.10;;
62543;SDS011;48597;49.030;1.822;2023-06-05T04:03:14;1.85;;;1.08;;
62543;SDS011;48597;49.030;1.822;2023-06-05T04:05:39;2.08;;;1.30;;
62543;SDS011;48597;49.030;1.822;2023-06-05T04:08:05;2.25;;;1.45;;
62543;SDS011;48597;49.030;1.822;2023-06-05T04:10:32;2.45;;;1.40;;
62543;SDS011;48597;49.030;1.822;2023-06-05T04:12:57;2.10;;;1.25;;
62543;SDS011;48597;49.030;1.822;2023-06-05T04:15:23;1.73;;;1.13;;
62543;SDS011;48597;49.030;1.822;2023-06-05T04:17:48;1.65;;;1.10;;
62543;SDS011;48597;49.030;1.822;2023-06-05T04:20:14;1.70;;;1.10;;
62543;SDS011;48597;49.030;1.822;2023-06-05T04:22:41;2.10;;;1.23;;
62543;SDS011;48597;49.030;1.822;2023-06-05T04:25:07;2.45;;;1.23;;
62543;SDS011;48597;49.030;1.822;2023-06-05T04:27:35;2.72;;;1.23;;
62543;SDS011;48597;49.030;1.822;2023-06-05T04:30:03;1.98;;;1.30;;
62543;SDS011;48597;49.030;1.822;2023-06-05T04:32:30;1.58;;;1.15;;
62543;SDS011;48597;49.030;1.822;2023-06-05T04:34:59;1.17;;;1.08;;
62543;SDS011;48597;49.030;1.822;2023-06-05T04:37:25;2.05;;;1.52;;
62543;SDS011;48597;49.030;1.822;2023-06-05T04:39:50;1.30;;;1.10;;
62543;SDS011;48597;49.030;1.822;2023-06-05T04:42:16;1.48;;;1.10;;
62543;SDS011;48597;49.030;1.822;2023-06-05T04:44:42;2.75;;;1.40;;
62543;SDS011;48597;49.030;1.822;2023-06-05T04:47:08;1.95;;;1.20;;
62543;SDS011;48597;49.030;1.822;2023-06-05T04:49:33;1.80;;;1.35;;
62543;SDS011;48597;49.030;1.822;2023-06-05T04:51:58;2.38;;;1.10;;
62543;SDS011;48597;49.030;1.822;2023-06-05T04:54:24;3.10;;;1.40;;
62543;SDS011;48597;49.030;1.822;2023-06-05T04:56:50;1.73;;;1.20;;
62543;SDS011;48597;49.030;1.822;2023-06-05T04:59:17;2.55;;;1.02;;
62543;SDS011;48597;49.030;1.822;2023-06-05T05:01:43;1.60;;;1.10;;
62543;SDS011;48597;49.030;1.822;2023-06-05T05:04:08;2.40;;;1.33;;
62543;SDS011;48597;49.030;1.822;2023-06-05T05:06:34;1.85;;;1.20;;
62543;SDS011;48597;49.030;1.822;2023-06-05T05:08:59;2.33;;;1.33;;
62543;SDS011;48597;49.030;1.822;2023-06-05T05:11:25;1.63;;;1.23;;
62543;SDS011;48597;49.030;1.822;2023-06-05T05:13:51;1.27;;;1.10;;
62543;SDS011;48597;49.030;1.822;2023-06-05T05:16:16;1.75;;;1.38;;
62543;SDS011;48597;49.030;1.822;2023-06-05T05:18:42;3.25;;;1.50;;
62543;SDS011;48597;49.030;1.822;2023-06-05T05:21:09;2.08;;;1.17;;
62543;SDS011;48597;49.030;1.822;2023-06-05T05:23:34;2.45;;;1.35;;
62543;SDS011;48597;49.030;1.822;2023-06-05T05:26:00;1.55;;;1.15;;
62543;SDS011;48597;49.030;1.822;2023-06-05T05:28:26;1.83;;;1.20;;
62543;SDS011;48597;49.030;1.822;2023-06-05T05:30:52;2.33;;;1.42;;
62543;SDS011;48597;49.030;1.822;2023-06-05T05:33:17;2.58;;;1.35;;
62543;SDS011;48597;49.030;1.822;2023-06-05T05:35:46;1.77;;;1.10;;
62543;SDS011;48597;49.030;1.822;2023-06-05T05:38:11;2.33;;;1.50;;
62543;SDS011;48597;49.030;1.822;2023-06-05T05:40:37;2.53;;;1.30;;
62543;SDS011;48597;49.030;1.822;2023-06-05T05:43:02;2.20;;;1.55;;
62543;SDS011;48597;49.030;1.822;2023-06-05T05:45:27;2.03;;;1.50;;
62543;SDS011;48597;49.030;1.822;2023-06-05T05:47:53;2.35;;;1.48;;
62543;SDS011;48597;49.030;1.822;2023-06-05T05:50:18;1.33;;;1.20;;
62543;SDS011;48597;49.030;1.822;2023-06-05T05:52:43;3.58;;;1.40;;
62543;SDS011;48597;49.030;1.822;2023-06-05T05:55:09;3.30;;;1.85;;
62543;SDS011;48597;49.030;1.822;2023-06-05T05:57:35;2.65;;;1.40;;
62543;SDS011;48597;49.030;1.822;2023-06-05T06:00:01;3.15;;;1.30;;
62543;SDS011;48597;49.030;1.822;2023-06-05T06:02:30;3.17;;;1.40;;
62543;SDS011;48597;49.030;1.822;2023-06-05T06:04:57;1.75;;;1.50;;
62543;SDS011;48597;49.030;1.822;2023-06-05T06:07:22;1.67;;;1.40;;
62543;SDS011;48597;49.030;1.822;2023-06-05T06:09:48;2.25;;;1.50;;
62543;SDS011;48597;49.030;1.822;2023-06-05T06:12:13;4.35;;;1.80;;
62543;SDS011;48597;49.030;1.822;2023-06-05T06:14:39;2.30;;;1.48;;
62543;SDS011;48597;49.030;1.822;2023-06-05T06:17:04;1.75;;;1.35;;
62543;SDS011;48597;49.030;1.822;2023-06-05T06:19:31;1.88;;;1.40;;
62543;SDS011;48597;49.030;1.822;2023-06-05T06:21:58;1.65;;;1.35;;
62543;SDS011;48597;49.030;1.822;2023-06-05T06:24:23;1.48;;;1.30;;
62543;SDS011;48597;49.030;1.822;2023-06-05T06:26:49;2.40;;;1.50;;
62543;SDS011;48597;49.030;1.822;2023-06-05T06:29:20;3.28;;;1.50;;
62543;SDS011;48597;49.030;1.822;2023-06-05T06:31:47;2.03;;;1.30;;
62543;SDS011;48597;49.030;1.822;2023-06-05T06:34:14;1.73;;;1.25;;
62543;SDS011;48597;49.030;1.822;2023-06-05T06:36:39;2.47;;;1.50;;
62543;SDS011;48597;49.030;1.822;2023-06-05T06:39:08;1.85;;;1.17;;
62543;SDS011;48597;49.030;1.822;2023-06-05T06:41:35;2.22;;;1.45;;
62543;SDS011;48597;49.030;1.822;2023-06-05T06:44:01;1.85;;;1.40;;
62543;SDS011;48597;49.030;1.822;2023-06-05T06:46:28;1.60;;;1.23;;
62543;SDS011;48597;49.030;1.822;2023-06-05T06:48:53;2.45;;;1.30;;
62543;SDS011;48597;49.030;1.822;2023-06-05T06:51:19;2.25;;;1.30;;
62543;SDS011;48597;49.030;1.822;2023-06-05T06:53:47;3.50;;;1.30;;
62543;SDS011;48597;49.030;1.822;2023-06-05T06:56:12;1.35;;;1.17;;
62543;SDS011;48597;49.030;1.822;2023-06-05T06:58:40;2.80;;;1.50;;
62543;SDS011;48597;49.030;1.822;2023-06-05T07:01:05;1.30;;;1.20;;
62543;SDS011;48597;49.030;1.822;2023-06-05T07:03:31;2.05;;;1.42;;
62543;SDS011;48597;49.030;1.822;2023-06-05T07:05:56;1.73;;;1.15;;
62543;SDS011;48597;49.030;1.822;2023-06-05T07:08:22;1.80;;;1.30;;
62543;SDS011;48597;49.030;1.822;2023-06-05T07:10:47;2.17;;;1.50;;
62543;SDS011;48597;49.030;1.822;2023-06-05T07:13:12;1.35;;;1.17;;
62543;SDS011;48597;49.030;1.822;2023-06-05T07:15:38;1.63;;;1.20;;
62543;SDS011;48597;49.030;1.822;2023-06-05T07:18:03;1.63;;;1.30;;
62543;SDS011;48597;49.030;1.822;2023-06-05T07:20:28;1.70;;;1.38;;
62543;SDS011;48597;49.030;1.822;2023-06-05T07:22:54;1.73;;;1.20;;
62543;SDS011;48597;49.030;1.822;2023-06-05T07:25:20;2.42;;;1.40;;
62543;SDS011;48597;49.030;1.822;2023-06-05T07:27:49;1.98;;;1.48;;
62543;SDS011;48597;49.030;1.822;2023-06-05T07:30:15;1.55;;;1.20;;
62543;SDS011;48597;49.030;1.822;2023-06-05T07:32:41;2.38;;;1.20;;
62543;SDS011;48597;49.030;1.822;2023-06-05T07:35:07;2.72;;;1.25;;
62543;SDS011;48597;49.030;1.822;2023-06-05T07:37:34;2.53;;;1.48;;
62543;SDS011;48597;49.030;1.822;2023-06-05T07:40:00;4.63;;;1.85;;
62543;SDS011;48597;49.030;1.822;2023-06-05T07:42:25;3.83;;;1.70;;
62543;SDS011;48597;49.030;1.822;2023-06-05T07:44:51;2.80;;;1.52;;
62543;SDS011;48597;49.030;1.822;2023-06-05T07:47:16;2.05;;;1.40;;
62543;SDS011;48597;49.030;1.822;2023-06-05T07:49:41;4.00;;;1.25;;
62543;SDS011;48597;49.030;1.822;2023-06-05T07:52:07;1.90;;;1.40;;
62543;SDS011;48597;49.030;1.822;2023-06-05T07:54:32;3.00;;;1.40;;
62543;SDS011;48597;49.030;1.822;2023-06-05T07:56:58;1.55;;;1.30;;
62543;SDS011;48597;49.030;1.822;2023-06-05T07:59:24;4.55;;;1.60;;
62543;SDS011;48597;49.030;1.822;2023-06-05T08:01:52;1.67;;;1.52;;
62543;SDS011;48597;49.030;1.822;2023-06-05T08:04:18;2.08;;;1.65;;
62543;SDS011;48597;49.030;1.822;2023-06-05T08:06:44;5.53;;;1.60;;
62543;SDS011;48597;49.030;1.822;2023-06-05T08:09:10;2.47;;;1.17;;
62543;SDS011;48597;49.030;1.822;2023-06-05T08:11:39;3.03;;;1.40;;
62543;SDS011;48597;49.030;1.822;2023-06-05T08:14:06;2.22;;;1.30;;
62543;SDS011;48597;49.030;1.822;2023-06-05T08:16:33;2.25;;;1.42;;
62543;SDS011;48597;49.030;1.822;2023-06-05T08:19:00;3.15;;;1.63;;
62543;SDS011;48597;49.030;1.822;2023-06-05T08:21:26;2.47;;;1.80;;
62543;SDS011;48597;49.030;1.822;2023-06-05T08:23:52;1.75;;;1.30;;
62543;SDS011;48597;49.030;1.822;2023-06-05T08:26:20;2.40;;;1.60;;
62543;SDS011;48597;49.030;1.822;2023-06-05T08:28:47;2.75;;;1.50;;
62543;SDS011;48597;49.030;1.822;2023-06-05T08:31:15;1.83;;;1.50;;
62543;SDS011;48597;49.030;1.822;2023-06-05T08:33:41;2.75;;;1.70;;
62543;SDS011;48597;49.030;1.822;2023-06-05T08:36:07;3.45;;;1.70;;
62543;SDS011;48597;49.030;1.822;2023-06-05T08:38:33;2.45;;;1.67;;
62543;SDS011;48597;49.030;1.822;2023-06-05T08:41:03;2.75;;;1.60;;
62543;SDS011;48597;49.030;1.822;2023-06-05T08:43:39;3.00;;;1.40;;
62543;SDS011;48597;49.030;1.822;2023-06-05T08:46:06;2.20;;;1.60;;
62543;SDS011;48597;49.030;1.822;2023-06-05T08:48:41;1.73;;;1.40;;
62543;SDS011;48597;49.030;1.822;2023-06-05T08:51:12;2.70;;;1.70;;
62543;SDS011;48597;49.030;1.822;2023-06-05T08:53:42;1.73;;;1.50;;
62543;SDS011;48597;49.030;1.822;2023-06-05T08:56:12;2.63;;;1.50;;
62543;SDS011;48597;49.030;1.822;2023-06-05T08:58:38;2.72;;;1.67;;
62543;SDS011;48597;49.030;1.822;2023-06-05T09:01:05;2.47;;;1.30;;
62543;SDS011;48597;49.030;1.822;2023-06-05T09:03:32;1.45;;;1.30;;
62543;SDS011;48597;49.030;1.822;2023-06-05T09:05:58;2.63;;;1.33;;
62543;SDS011;48597;49.030;1.822;2023-06-05T09:08:33;1.60;;;1.48;;
62543;SDS011;48597;49.030;1.822;2023-06-05T09:13:59;2.08;;;1.45;;
62543;SDS011;48597;49.030;1.822;2023-06-05T09:16:39;2.60;;;1.77;;
62543;SDS011;48597;49.030;1.822;2023-06-05T09:19:10;1.95;;;1.40;;
62543;SDS011;48597;49.030;1.822;2023-06-05T09:21:36;2.05;;;1.50;;
62543;SDS011;48597;49.030;1.822;2023-06-05T09:24:21;3.63;;;1.40;;
62543;SDS011;48597;49.030;1.822;2023-06-05T09:26:53;2.50;;;1.35;;
62543;SDS011;48597;49.030;1.822;2023-06-05T09:32:37;1.80;;;1.40;;
62543;SDS011;48597;49.030;1.822;2023-06-05T09:34:54;2.35;;;1.60;;
62543;SDS011;48597;49.030;1.822;2023-06-05T09:37:33;1.75;;;1.40;;
62543;SDS011;48597;49.030;1.822;2023-06-05T09:40:00;1.92;;;1.45;;
62543;SDS011;48597;49.030;1.822;2023-06-05T09:42:32;1.40;;;1.27;;
62543;SDS011;48597;49.030;1.822;2023-06-05T09:45:00;1.85;;;1.50;;
62543;SDS011;48597;49.030;1.822;2023-06-05T09:47:26;2.25;;;1.70;;
62543;SDS011;48597;49.030;1.822;2023-06-05T09:49:51;1.95;;;1.40;;
62543;SDS011;48597;49.030;1.822;2023-06-05T09:52:17;2.83;;;1.30;;
62543;SDS011;48597;49.030;1.822;2023-06-05T09:54:43;1.40;;;1.30;;
62543;SDS011;48597;49.030;1.822;2023-06-05T09:57:10;2.28;;;1.65;;
62543;SDS011;48597;49.030;1.822;2023-06-05T09:59:44;1.63;;;1.40;;
62543;SDS011;48597;49.030;1.822;2023-06-05T10:02:14;2.45;;;1.40;;
62543;SDS011;48597;49.030;1.822;2023-06-05T10:04:57;1.63;;;1.33;;
62543;SDS011;48597;49.030;1.822;2023-06-05T10:07:24;2.10;;;1.48;;
62543;SDS011;48597;49.030;1.822;2023-06-05T10:09:51;1.38;;;1.27;;
62543;SDS011;48597;49.030;1.822;2023-06-05T10:12:16;2.28;;;1.58;;
62543;SDS011;48597;49.030;1.822;2023-06-05T10:14:43;3.10;;;1.40;;
62543;SDS011;48597;49.030;1.822;2023-06-05T10:17:09;1.65;;;1.40;;
62543;SDS011;48597;49.030;1.822;2023-06-05T10:19:36;2.00;;;1.70;;
62543;SDS011;48597;49.030;1.822;2023-06-05T10:22:05;1.40;;;1.30;;
62543;SDS011;48597;49.030;1.822;2023-06-05T10:24:33;2.35;;;1.60;;
62543;SDS011;48597;49.030;1.822;2023-06-05T10:27:10;2.42;;;1.60;;
62543;SDS011;48597;49.030;1.822;2023-06-05T10:35:53;3.47;;;1.80;;
62543;SDS011;48597;49.030;1.822;2023-06-05T10:38:30;2.05;;;1.42;;
62543;SDS011;48597;49.030;1.822;2023-06-05T10:40:59;3.05;;;1.60;;
62543;SDS011;48597;49.030;1.822;2023-06-05T10:43:47;1.83;;;1.63;;
62543;SDS011;48597;49.030;1.822;2023-06-05T10:51:52;2.30;;;1.67;;
62543;SDS011;48597;49.030;1.822;2023-06-05T11:07:14;2.10;;;1.58;;
62543;SDS011;48597;49.030;1.822;2023-06-05T11:15:16;2.22;;;2.00;;
62543;SDS011;48597;49.030;1.822;2023-06-05T11:20:52;2.53;;;2.00;;
62543;SDS011;48597;49.030;1.822;2023-06-05T11:23:18;2.30;;;1.80;;
62543;SDS011;48597;49.030;1.822;2023-06-05T11:25:43;2.97;;;2.10;;
62543;SDS011;48597;49.030;1.822;2023-06-05T11:28:09;2.83;;;1.85;;
62543;SDS011;48597;49.030;1.822;2023-06-05T11:30:40;2.22;;;1.90;;
62543;SDS011;48597;49.030;1.822;2023-06-05T11:33:14;2.97;;;1.90;;
62543;SDS011;48597;49.030;1.822;2023-06-05T11:35:41;2.33;;;2.13;;
62543;SDS011;48597;49.030;1.822;2023-06-05T11:38:09;2.20;;;1.70;;
62543;SDS011;48597;49.030;1.822;2023-06-05T11:40:36;2.25;;;1.90;;
62543;SDS011;48597;49.030;1.822;2023-06-05T11:43:03;3.08;;;1.92;;
62543;SDS011;48597;49.030;1.822;2023-06-05T11:45:29;1.95;;;1.80;;
62543;SDS011;48597;49.030;1.822;2023-06-05T11:50:37;2.13;;;1.73;;
62543;SDS011;48597;49.030;1.822;2023-06-05T11:53:07;2.67;;;2.00;;
62543;SDS011;48597;49.030;1.822;2023-06-05T11:55:35;2.42;;;1.80;;
62543;SDS011;48597;49.030;1.822;2023-06-05T11:58:21;3.45;;;2.15;;
62543;SDS011;48597;49.030;1.822;2023-06-05T12:00:47;2.25;;;1.65;;
62543;SDS011;48597;49.030;1.822;2023-06-05T12:03:22;1.67;;;1.58;;
62543;SDS011;48597;49.030;1.822;2023-06-05T12:05:49;1.98;;;1.65;;
62543;SDS011;48597;49.030;1.822;2023-06-05T12:08:21;2.13;;;1.83;;
62543;SDS011;48597;49.030;1.822;2023-06-05T12:10:55;2.53;;;1.90;;
62543;SDS011;48597;49.030;1.822;2023-06-05T12:16:14;3.10;;;2.33;;
62543;SDS011;48597;49.030;1.822;2023-06-05T12:18:41;2.50;;;1.77;;
62543;SDS011;48597;49.030;1.822;2023-06-05T12:21:13;2.60;;;1.75;;
62543;SDS011;48597;49.030;1.822;2023-06-05T12:23:44;2.05;;;1.85;;
62543;SDS011;48597;49.030;1.822;2023-06-05T12:26:09;2.25;;;1.83;;
62543;SDS011;48597;49.030;1.822;2023-06-05T12:28:36;1.90;;;1.70;;
62543;SDS011;48597;49.030;1.822;2023-06-05T12:31:02;3.17;;;1.90;;
62543;SDS011;48597;49.030;1.822;2023-06-05T12:33:28;2.20;;;2.00;;
62543;SDS011;48597;49.030;1.822;2023-06-05T12:36:06;2.15;;;1.70;;
62543;SDS011;48597;49.030;1.822;2023-06-05T12:38:38;3.55;;;1.70;;
62543;SDS011;48597;49.030;1.822;2023-06-05T12:41:05;2.47;;;1.70;;
62543;SDS011;48597;49.030;1.822;2023-06-05T12:43:32;2.55;;;1.98;;
62543;SDS011;48597;49.030;1.822;2023-06-05T12:45:58;2.83;;;2.10;;
62543;SDS011;48597;49.030;1.822;2023-06-05T12:48:23;1.63;;;1.52;;
62543;SDS011;48597;49.030;1.822;2023-06-05T12:50:49;1.98;;;1.77;;
62543;SDS011;48597;49.030;1.822;2023-06-05T12:53:15;3.35;;;1.85;;
62543;SDS011;48597;49.030;1.822;2023-06-05T12:55:41;1.90;;;1.65;;
62543;SDS011;48597;49.030;1.822;2023-06-05T12:58:06;2.95;;;1.90;;
62543;SDS011;48597;49.030;1.822;2023-06-05T13:00:32;3.90;;;2.00;;
62543;SDS011;48597;49.030;1.822;2023-06-05T13:02:57;2.63;;;2.05;;
62543;SDS011;48597;49.030;1.822;2023-06-05T13:05:22;4.20;;;2.17;;
62543;SDS011;48597;49.030;1.822;2023-06-05T13:07:48;3.55;;;2.00;;
62543;SDS011;48597;49.030;1.822;2023-06-05T13:10:16;2.63;;;2.00;;
62543;SDS011;48597;49.030;1.822;2023-06-05T13:12:41;3.38;;;1.77;;
62543;SDS011;48597;49.030;1.822;2023-06-05T13:15:07;3.85;;;1.90;;
62543;SDS011;48597;49.030;1.822;2023-06-05T13:17:33;3.03;;;2.00;;
62543;SDS011;48597;49.030;1.822;2023-06-05T13:20:01;3.00;;;1.80;;
62543;SDS011;48597;49.030;1.822;2023-06-05T13:22:31;2.30;;;1.80;;
62543;SDS011;48597;49.030;1.822;2023-06-05T13:24:56;2.97;;;2.00;;
62543;SDS011;48597;49.030;1.822;2023-06-05T13:27:22;2.67;;;2.10;;
62543;SDS011;48597;49.030;1.822;2023-06-05T13:29:48;3.95;;;2.00;;
62543;SDS011;48597;49.030;1.822;2023-06-05T13:32:13;3.90;;;1.83;;
62543;SDS011;48597;49.030;1.822;2023-06-05T13:34:38;3.03;;;2.00;;
62543;SDS011;48597;49.030;1.822;2023-06-05T13:37:04;2.95;;;1.90;;
62543;SDS011;48597;49.030;1.822;2023-06-05T13:39:29;3.25;;;1.77;;
62543;SDS011;48597;49.030;1.822;2023-06-05T13:41:55;3.30;;;2.05;;
62543;SDS011;48597;49.030;1.822;2023-06-05T13:44:20;2.83;;;2.13;;
62543;SDS011;48597;49.030;1.822;2023-06-05T13:46:46;3.67;;;2.10;;
62543;SDS011;48597;49.030;1.822;2023-06-05T13:49:12;4.38;;;2.47;;
62543;SDS011;48597;49.030;1.822;2023-06-05T13:51:37;3.35;;;2.50;;
62543;SDS011;48597;49.030;1.822;2023-06-05T13:54:03;3.90;;;2.20;;
62543;SDS011;48597;49.030;1.822;2023-06-05T13:56:29;3.53;;;2.10;;
62543;SDS011;48597;49.030;1.822;2023-06-05T13:58:55;2.47;;;2.28;;
62543;SDS011;48597;49.030;1.822;2023-06-05T14:01:22;4.30;;;2.03;;
62543;SDS011;48597;49.030;1.822;2023-06-05T14:03:48;3.40;;;1.77;;
62543;SDS011;48597;49.030;1.822;2023-06-05T14:06:13;3.25;;;2.33;;
62543;SDS011;48597;49.030;1.822;2023-06-05T14:08:38;4.22;;;2.30;;
62543;SDS011;48597;49.030;1.822;2023-06-05T14:11:04;5.40;;;3.10;;
62543;SDS011;48597;49.030;1.822;2023-06-05T14:13:29;4.22;;;2.20;;
62543;SDS011;48597;49.030;1.822;2023-06-05T14:15:55;3.95;;;2.30;;
62543;SDS011;48597;49.030;1.822;2023-06-05T14:18:20;5.15;;;2.20;;
62543;SDS011;48597;49.030;1.822;2023-06-05T14:20:46;3.35;;;2.15;;
62543;SDS011;48597;49.030;1.822;2023-06-05T14:23:11;4.72;;;2.25;;
62543;SDS011;48597;49.030;1.822;2023-06-05T14:25:37;5.95;;;2.40;;
62543;SDS011;48597;49.030;1.822;2023-06-05T14:28:02;5.13;;;3.10;;
62543;SDS011;48597;49.030;1.822;2023-06-05T14:30:28;3.83;;;2.30;;
62543;SDS011;48597;49.030;1.822;2023-06-05T14:32:54;5.35;;;2.83;;
62543;SDS011;48597;49.030;1.822;2023-06-05T14:35:20;8.30;;;2.58;;
62543;SDS011;48597;49.030;1.822;2023-06-05T14:37:47;9.48;;;3.53;;
62543;SDS011;48597;49.030;1.822;2023-06-05T14:40:13;7.15;;;3.35;;
62543;SDS011;48597;49.030;1.822;2023-06-05T14:42:38;9.07;;;3.28;;
62543;SDS011;48597;49.030;1.822;2023-06-05T14:45:04;7.13;;;2.92;;
62543;SDS011;48597;49.030;1.822;2023-06-05T14:47:30;5.55;;;2.53;;
62543;SDS011;48597;49.030;1.822;2023-06-05T14:49:56;6.55;;;3.15;;
62543;SDS011;48597;49.030;1.822;2023-06-05T14:52:21;7.43;;;2.83;;
62543;SDS011;48597;49.030;1.822;2023-06-05T14:54:47;8.98;;;3.38;;
62543;SDS011;48597;49.030;1.822;2023-06-05T14:57:12;11.98;;;3.80;;
62543;SDS011;48597;49.030;1.822;2023-06-05T14:59:38;8.27;;;3.45;;
62543;SDS011;48597;49.030;1.822;2023-06-05T15:02:03;11.63;;;4.25;;
62543;SDS011;48597;49.030;1.822;2023-06-05T15:04:29;9.35;;;3.75;;
62543;SDS011;48597;49.030;1.822;2023-06-05T15:06:55;13.82;;;4.10;;
62543;SDS011;48597;49.030;1.822;2023-06-05T15:09:21;11.57;;;3.92;;
62543;SDS011;48597;49.030;1.822;2023-06-05T15:11:47;10.27;;;3.42;;
62543;SDS011;48597;49.030;1.822;2023-06-05T15:14:13;13.45;;;4.75;;
62543;SDS011;48597;49.030;1.822;2023-06-05T15:16:38;14.13;;;4.20;;
62543;SDS011;48597;49.030;1.822;2023-06-05T15:19:03;12.55;;;4.28;;
62543;SDS011;48597;49.030;1.822;2023-06-05T15:21:29;12.90;;;4.85;;
62543;SDS011;48597;49.030;1.822;2023-06-05T15:23:54;14.52;;;4.28;;
62543;SDS011;48597;49.030;1.822;2023-06-05T15:26:20;16.92;;;5.00;;
62543;SDS011;48597;49.030;1.822;2023-06-05T15:28:46;14.73;;;5.10;;
62543;SDS011;48597;49.030;1.822;2023-06-05T15:31:12;20.17;;;5.45;;
62543;SDS011;48597;49.030;1.822;2023-06-05T15:33:38;18.45;;;4.97;;